createdAt,value
2023-04-18T00:00:06.236Z,72.42
2023-04-18T00:02:55.273Z,72.50
2023-04-18T00:05:38.714Z,72.56
2023-04-18T00:08:21.507Z,72.43
2023-04-18T00:11:05.750Z,72.49
2023-04-18T00:13:48.556Z,72.34
2023-04-18T00:16:33.123Z,72.18
2023-04-18T00:19:15.960Z,72.40
2023-04-18T00:21:59.909Z,72.22
2023-04-18T00:24:42.687Z,72.50
2023-04-18T00:27:27.218Z,72.75
2023-04-18T00:30:10.851Z,72.62
2023-04-18T00:32:53.644Z,72.55
2023-04-18T00:35:38.178Z,72.77
2023-04-18T00:38:20.924Z,72.86
2023-04-18T00:41:04.151Z,72.76
2023-04-18T00:43:48.274Z,72.80
2023-04-18T00:46:31.132Z,72.49
2023-04-18T00:49:14.121Z,72.76
2023-04-18T00:51:57.598Z,73.14
2023-04-18T00:54:41.104Z,72.91
2023-04-18T00:57:24.565Z,72.86
2023-04-18T01:00:10.131Z,72.87
2023-04-18T01:02:55.885Z,72.79
2023-04-18T01:05:39.496Z,72.82
2023-04-18T01:08:23.306Z,72.85
2023-04-18T01:11:06.250Z,72.88
2023-04-18T01:14:00.454Z,73.37
2023-04-18T01:16:44.995Z,73.31
2023-04-18T01:19:27.906Z,73.66
2023-04-18T01:22:14.292Z,73.65
2023-04-18T01:24:58.632Z,73.74
2023-04-18T01:27:41.439Z,74.02
2023-04-18T01:30:24.292Z,73.94
2023-04-18T01:33:07.604Z,73.79
2023-04-18T01:35:50.463Z,73.85
2023-04-18T01:38:34.228Z,74.06
2023-04-18T01:41:18.372Z,73.80
2023-04-18T01:44:01.130Z,73.66
2023-04-18T01:46:43.982Z,73.64
2023-04-18T01:49:26.770Z,73.69
2023-04-18T01:52:09.603Z,73.89
2023-04-18T01:54:52.398Z,73.99
2023-04-18T01:57:37.652Z,73.91
2023-04-18T02:00:21.659Z,73.84
2023-04-18T02:03:05.057Z,73.70
2023-04-18T02:05:48.131Z,73.47
2023-04-18T02:08:33.085Z,73.32
2023-04-18T02:11:15.922Z,73.20
2023-04-18T02:14:00.238Z,73.08
2023-04-18T02:16:43.091Z,73.19
2023-04-18T02:19:26.335Z,73.53
2023-04-18T02:22:09.118Z,73.46
2023-04-18T02:24:51.928Z,73.72
2023-04-18T02:27:34.960Z,73.63
2023-04-18T02:30:19.155Z,73.51
2023-04-18T02:33:02.020Z,73.60
2023-04-18T02:35:44.794Z,73.67
2023-04-18T02:38:27.592Z,73.67
2023-04-18T02:41:14.996Z,73.69
2023-04-18T02:43:58.172Z,73.66
2023-04-18T02:46:42.717Z,73.55
2023-04-18T02:49:28.409Z,73.40
2023-04-18T02:52:11.200Z,73.79
2023-04-18T02:54:53.987Z,73.85
2023-04-18T02:57:41.590Z,73.88
2023-04-18T03:00:26.973Z,73.97
2023-04-18T03:03:18.923Z,73.84
2023-04-18T03:06:26.959Z,73.83
2023-04-18T03:09:10.038Z,73.78
2023-04-18T03:11:58.500Z,73.82
2023-04-18T03:14:45.384Z,73.69
2023-04-18T03:17:30.144Z,73.63
2023-04-18T03:20:14.881Z,73.85
2023-04-18T03:22:57.761Z,73.80
2023-04-18T03:25:42.870Z,73.77
2023-04-18T03:28:26.030Z,73.93
2023-04-18T03:31:09.633Z,74.18
2023-04-18T03:33:55.344Z,73.98
2023-04-18T03:36:39.536Z,73.84
2023-04-18T03:39:22.447Z,73.78
2023-04-18T03:42:05.254Z,74.00
2023-04-18T03:44:49.550Z,73.99
2023-04-18T03:47:33.495Z,73.95
2023-04-18T03:50:16.569Z,74.18
2023-04-18T03:53:02.893Z,74.09
2023-04-18T03:55:49.164Z,74.16
2023-04-18T03:58:36.443Z,74.39
2023-04-18T04:01:19.258Z,74.22
2023-04-18T04:04:03.049Z,74.13
2023-04-18T04:06:46.295Z,74.39
2023-04-18T04:09:30.595Z,74.24
2023-04-18T04:12:13.482Z,74.11
2023-04-18T04:14:56.266Z,74.22
2023-04-18T04:17:39.140Z,73.83
2023-04-18T04:20:24.699Z,73.81
2023-04-18T04:23:14.503Z,74.00
2023-04-18T04:26:04.153Z,73.91
2023-04-18T04:28:58.539Z,73.95
2023-04-18T04:31:43.819Z,73.94
2023-04-18T04:34:26.795Z,73.67
2023-04-18T04:37:10.215Z,73.82
2023-04-18T04:40:04.734Z,73.77
2023-04-18T04:42:58.743Z,73.64
2023-04-18T04:45:49.611Z,73.82
2023-04-18T04:48:32.430Z,73.90
2023-04-18T04:51:15.221Z,73.95
2023-04-18T04:53:58.070Z,73.83
2023-04-18T04:56:40.918Z,74.07
2023-04-18T04:59:25.322Z,74.01
2023-04-18T05:02:08.464Z,73.65
2023-04-18T05:04:52.205Z,73.76
2023-04-18T05:07:35.166Z,73.68
2023-04-18T05:10:18.058Z,73.59
2023-04-18T05:13:00.857Z,73.66
2023-04-18T05:15:45.579Z,73.69
2023-04-18T05:18:28.476Z,73.41
2023-04-18T05:21:11.432Z,73.25
2023-04-18T05:23:54.375Z,72.93
2023-04-18T05:26:37.356Z,72.86
2023-04-18T05:29:20.398Z,72.77
2023-04-18T05:32:04.741Z,72.50
2023-04-18T05:34:47.908Z,72.38
2023-04-18T05:37:30.784Z,72.49
2023-04-18T05:40:14.667Z,72.11
2023-04-18T05:42:57.556Z,71.84
2023-04-18T05:45:40.712Z,71.79
2023-04-18T05:48:25.462Z,71.74
2023-04-18T05:51:10.026Z,71.66
2023-04-18T05:53:54.433Z,71.73
2023-04-18T05:56:37.473Z,71.81
2023-04-18T05:59:20.678Z,71.69
2023-04-18T06:02:03.474Z,71.60
2023-04-18T06:04:48.746Z,71.67
2023-04-18T06:07:32.389Z,71.59
2023-04-18T06:10:15.808Z,71.70
2023-04-18T06:12:58.577Z,71.46
2023-04-18T06:15:41.846Z,71.85
2023-04-18T06:18:24.725Z,71.79
2023-04-18T06:21:08.973Z,71.84
2023-04-18T06:23:51.732Z,72.01
2023-04-18T06:26:34.739Z,71.87
2023-04-18T06:29:18.225Z,71.45
2023-04-18T06:32:01.061Z,71.77
2023-04-18T06:34:44.827Z,71.81
2023-04-18T06:37:29.070Z,71.85
2023-04-18T06:40:12.978Z,71.67
2023-04-18T06:42:55.829Z,71.52
2023-04-18T06:45:38.930Z,71.41
2023-04-18T06:48:21.748Z,71.20
2023-04-18T06:51:04.748Z,71.39
2023-04-18T06:53:52.498Z,71.26
2023-04-18T06:56:36.525Z,71.04
2023-04-18T06:59:21.416Z,71.04
2023-04-18T07:02:04.192Z,71.12
2023-04-18T07:04:47.528Z,71.40
2023-04-18T07:07:30.367Z,71.43
2023-04-18T07:10:14.560Z,71.48
2023-04-18T07:12:57.332Z,71.54
2023-04-18T07:15:40.136Z,71.43
2023-04-18T07:18:34.092Z,71.20
2023-04-18T07:21:17.455Z,71.18
2023-04-18T07:24:00.228Z,71.09
2023-04-18T07:26:44.574Z,71.24
2023-04-18T07:29:27.345Z,70.98
2023-04-18T07:32:10.666Z,70.86
2023-04-18T07:34:53.784Z,70.99
2023-04-18T07:37:36.952Z,71.06
2023-04-18T07:40:19.931Z,70.88
2023-04-18T07:43:04.116Z,70.67
2023-04-18T07:45:46.913Z,70.77
2023-04-18T07:48:29.687Z,70.70
2023-04-18T07:51:12.978Z,70.53
2023-04-18T07:53:55.709Z,70.79
2023-04-18T07:56:38.560Z,70.60
2023-04-18T07:59:22.669Z,70.50
2023-04-18T08:02:05.554Z,70.21
2023-04-18T08:04:50.079Z,70.39
2023-04-18T08:07:32.841Z,69.16
2023-04-18T08:10:15.669Z,69.44
2023-04-18T08:12:58.457Z,69.09
2023-04-18T08:15:44.212Z,69.37
2023-04-18T08:18:27.083Z,69.22
2023-04-18T08:21:09.901Z,69.05
2023-04-18T08:23:52.662Z,68.79
2023-04-18T08:26:35.559Z,69.12
2023-04-18T08:29:18.363Z,68.68
2023-04-18T08:32:02.821Z,68.68
2023-04-18T08:34:46.848Z,68.78
2023-04-18T08:37:30.231Z,68.46
2023-04-18T08:40:13.250Z,67.98
2023-04-18T08:42:58.436Z,67.47
2023-04-18T08:45:41.535Z,67.74
2023-04-18T08:48:26.371Z,67.69
2023-04-18T08:51:09.273Z,67.72
2023-04-18T08:53:52.093Z,67.39
2023-04-18T08:56:37.453Z,67.49
2023-04-18T08:59:20.518Z,67.54
2023-04-18T09:02:05.010Z,67.19
2023-04-18T09:04:52.482Z,67.79
2023-04-18T09:07:35.318Z,67.74
2023-04-18T09:10:27.526Z,67.41
2023-04-18T09:13:10.379Z,67.69
2023-04-18T09:15:56.119Z,67.30
2023-04-18T09:18:38.905Z,67.33
2023-04-18T09:21:23.660Z,67.40
2023-04-18T09:24:20.752Z,67.29
2023-04-18T09:27:04.332Z,67.67
2023-04-18T09:29:49.397Z,67.65
2023-04-18T09:32:33.274Z,67.31
2023-04-18T09:35:25.896Z,66.90
2023-04-18T09:38:10.243Z,67.06
2023-04-18T09:41:08.924Z,67.22
2023-04-18T09:44:09.297Z,67.14
2023-04-18T09:46:53.802Z,67.07
2023-04-18T09:49:36.614Z,67.24
2023-04-18T09:52:21.101Z,67.16
2023-04-18T09:55:06.938Z,67.15
2023-04-18T09:57:50.118Z,66.96
2023-04-18T10:00:36.445Z,67.16
2023-04-18T10:03:20.849Z,66.98
2023-04-18T10:06:04.605Z,66.70
2023-04-18T10:08:49.034Z,66.68
2023-04-18T10:11:33.295Z,66.36
2023-04-18T10:14:17.476Z,66.25
2023-04-18T10:17:01.111Z,66.19
2023-04-18T10:19:46.013Z,66.34
2023-04-18T10:22:28.926Z,66.49
2023-04-18T10:25:11.714Z,66.42
2023-04-18T10:28:02.969Z,66.66
2023-04-18T10:30:57.766Z,66.61
2023-04-18T10:33:42.781Z,66.53
2023-04-18T10:36:26.858Z,66.65
2023-04-18T10:39:22.461Z,66.93
2023-04-18T10:42:05.643Z,67.22
2023-04-18T10:45:19.611Z,66.79
2023-04-18T10:48:26.061Z,67.24
2023-04-18T10:51:20.911Z,66.73
2023-04-18T10:54:04.663Z,66.54
2023-04-18T10:56:54.241Z,66.63
2023-04-18T10:59:39.881Z,66.67
2023-04-18T11:02:30.047Z,66.77
2023-04-18T11:05:13.118Z,67.05
2023-04-18T11:07:56.034Z,66.42
2023-04-18T11:10:38.950Z,65.45
2023-04-18T11:13:21.750Z,65.07
2023-04-18T11:16:05.321Z,65.11
2023-04-18T11:18:49.481Z,64.74
2023-04-18T11:21:32.213Z,64.40
2023-04-18T11:24:23.119Z,65.12
2023-04-18T11:27:06.640Z,65.06
2023-04-18T11:29:53.932Z,64.76
2023-04-18T11:32:37.005Z,64.59
2023-04-18T11:35:21.276Z,64.63
2023-04-18T11:38:04.624Z,65.21
2023-04-18T11:40:51.250Z,65.29
2023-04-18T11:43:34.694Z,65.44
2023-04-18T11:46:17.547Z,64.90
2023-04-18T11:49:00.388Z,64.83
2023-04-18T11:51:46.289Z,64.24
2023-04-18T11:54:42.604Z,63.76
2023-04-18T11:57:26.795Z,64.22
2023-04-18T12:00:12.231Z,64.29
2023-04-18T12:02:55.184Z,64.54
2023-04-18T12:05:39.255Z,64.64
2023-04-18T12:08:23.597Z,64.25
2023-04-18T12:11:06.348Z,64.33
2023-04-18T12:13:49.333Z,64.33
2023-04-18T12:16:33.440Z,64.18
2023-04-18T12:19:17.065Z,64.19
2023-04-18T12:22:01.623Z,63.83
2023-04-18T12:24:46.232Z,64.14
2023-04-18T12:27:48.084Z,63.82
2023-04-18T12:30:33.393Z,64.12
2023-04-18T12:33:17.432Z,64.01
2023-04-18T12:36:00.835Z,64.25
2023-04-18T12:38:43.756Z,64.05
2023-04-18T12:41:27.881Z,63.11
2023-04-18T12:44:10.637Z,62.94
2023-04-18T12:46:53.439Z,63.45
2023-04-18T12:49:36.350Z,62.45
2023-04-18T12:52:19.089Z,61.15
2023-04-18T12:55:01.997Z,61.63
2023-04-18T12:57:46.168Z,62.15
2023-04-18T13:00:30.420Z,62.10
2023-04-18T13:03:13.745Z,62.77
2023-04-18T13:05:56.659Z,62.71
2023-04-18T13:08:39.453Z,62.59
2023-04-18T13:11:22.530Z,62.61
2023-04-18T13:14:07.094Z,62.86
2023-04-18T13:16:49.898Z,62.68
2023-04-18T13:19:32.824Z,63.09
2023-04-18T13:22:15.775Z,63.24
2023-04-18T13:24:58.571Z,63.25
2023-04-18T13:27:42.470Z,63.89
2023-04-18T13:30:26.862Z,64.18
2023-04-18T13:33:10.617Z,64.41
2023-04-18T13:35:53.766Z,63.97
2023-04-18T13:38:36.553Z,63.71
2023-04-18T13:41:19.322Z,64.02
2023-04-18T13:44:02.091Z,64.04
2023-04-18T13:46:46.342Z,63.93
2023-04-18T13:49:29.355Z,64.10
2023-04-18T13:52:12.183Z,63.96
2023-04-18T13:54:56.409Z,64.28
2023-04-18T13:57:39.209Z,64.05
2023-04-18T14:00:22.192Z,64.36
2023-04-18T14:03:06.894Z,64.64
2023-04-18T14:05:49.753Z,64.82
2023-04-18T14:08:32.569Z,65.07
2023-04-18T14:11:15.320Z,65.20
2023-04-18T14:13:58.095Z,65.33
2023-04-18T14:16:40.858Z,65.42
2023-04-18T14:19:25.129Z,65.33
2023-04-18T14:22:08.099Z,65.20
2023-04-18T14:24:52.353Z,65.31
2023-04-18T14:27:35.154Z,64.66
2023-04-18T14:30:17.967Z,64.49
2023-04-18T14:33:00.770Z,64.18
2023-04-18T14:35:45.050Z,64.29
2023-04-18T14:38:27.879Z,64.57
2023-04-18T14:41:11.093Z,64.18
2023-04-18T14:43:53.930Z,64.06
2023-04-18T14:49:19.573Z,63.77
2023-04-18T14:52:03.706Z,63.60
2023-04-18T14:54:46.482Z,63.15
2023-04-18T14:57:29.321Z,63.61
2023-04-18T15:00:14.651Z,63.66
2023-04-18T15:02:57.534Z,63.63
2023-04-18T15:05:42.939Z,63.37
2023-04-18T15:08:27.362Z,63.19
2023-04-18T15:11:10.123Z,62.88
2023-04-18T15:13:52.897Z,63.04
2023-04-18T15:16:38.028Z,62.99
2023-04-18T15:19:20.887Z,62.40
2023-04-18T15:22:03.811Z,62.27
2023-04-18T15:24:48.384Z,62.23
2023-04-18T15:27:31.159Z,62.31
2023-04-18T15:30:14.505Z,62.12
2023-04-18T15:32:57.322Z,62.61
2023-04-18T15:35:40.183Z,62.63
2023-04-18T15:38:23.262Z,62.13
2023-04-18T15:41:07.448Z,62.32
2023-04-18T15:43:50.306Z,62.50
2023-04-18T15:46:33.200Z,62.57
2023-04-18T15:49:16.198Z,62.40
2023-04-18T15:51:58.997Z,62.19
2023-04-18T15:54:42.791Z,62.26
2023-04-18T15:57:29.337Z,62.39
2023-04-18T16:00:15.894Z,61.97
2023-04-18T16:02:58.864Z,62.39
2023-04-18T16:05:41.820Z,62.36
2023-04-18T16:08:24.633Z,62.36
2023-04-18T16:11:08.359Z,62.43
2023-04-18T16:13:52.725Z,62.52
2023-04-18T16:16:35.523Z,62.52
2023-04-18T16:19:18.432Z,62.22
2023-04-18T16:22:01.257Z,62.76
2023-04-18T16:24:44.027Z,62.72
2023-04-18T16:27:26.774Z,63.09
2023-04-18T16:30:11.924Z,63.04
2023-04-18T16:32:55.428Z,63.18
2023-04-18T16:35:38.684Z,63.22
2023-04-18T16:38:23.522Z,63.17
2023-04-18T16:41:06.518Z,62.99
2023-04-18T16:43:49.281Z,62.76
2023-04-18T16:46:33.479Z,62.97
2023-04-18T16:49:16.307Z,63.37
2023-04-18T16:51:59.068Z,63.79
2023-04-18T16:54:42.082Z,63.90
2023-04-18T16:57:24.851Z,64.16
2023-04-18T17:00:10.224Z,64.17
2023-04-18T17:02:55.789Z,63.93
2023-04-18T17:05:39.378Z,64.16
2023-04-18T17:08:22.153Z,64.40
2023-04-18T17:11:05.006Z,64.52
2023-04-18T17:13:48.097Z,64.37
2023-04-18T17:16:31.426Z,64.32
2023-04-18T17:19:16.379Z,64.01
2023-04-18T17:21:59.281Z,64.28
2023-04-18T17:24:42.112Z,64.55
2023-04-18T17:27:25.093Z,64.90
2023-04-18T17:30:08.914Z,64.62
2023-04-18T17:32:51.705Z,64.56
2023-04-18T17:35:37.116Z,64.43
2023-04-18T17:38:19.878Z,64.22
2023-04-18T17:41:04.617Z,64.42
2023-04-18T17:43:47.803Z,64.43
2023-04-18T17:46:30.762Z,64.59
2023-04-18T17:49:13.814Z,65.16
2023-04-18T17:51:58.031Z,64.92
2023-04-18T17:54:40.801Z,64.81
2023-04-18T17:57:26.028Z,65.06
2023-04-18T18:00:10.463Z,65.56
2023-04-18T18:02:55.230Z,65.62
2023-04-18T18:05:38.110Z,66.12
2023-04-18T18:08:22.546Z,66.17
2023-04-18T18:11:06.144Z,65.97
2023-04-18T18:13:51.666Z,65.98
2023-04-18T18:16:34.717Z,66.26
2023-04-18T18:19:17.674Z,66.57
2023-04-18T18:22:00.431Z,67.11
2023-04-18T18:24:44.568Z,67.09
2023-04-18T18:27:27.325Z,67.38
2023-04-18T18:30:10.433Z,67.30
2023-04-18T18:32:53.582Z,67.44
2023-04-18T18:35:36.565Z,67.30
2023-04-18T18:38:19.331Z,67.82
2023-04-18T18:41:04.633Z,67.95
2023-04-18T18:43:47.398Z,67.73
2023-04-18T18:46:30.309Z,68.02
2023-04-18T18:49:13.373Z,68.29
2023-04-18T18:51:56.933Z,68.37
2023-04-18T18:54:39.734Z,68.42
2023-04-18T18:57:23.931Z,68.60
2023-04-18T19:00:09.679Z,69.14
2023-04-18T19:02:53.000Z,69.19
2023-04-18T19:05:35.901Z,69.08
2023-04-18T19:08:18.666Z,69.27
2023-04-18T19:11:01.514Z,69.27
2023-04-18T19:13:45.640Z,69.25
2023-04-18T19:16:29.705Z,69.35
2023-04-18T19:19:12.617Z,69.42
2023-04-18T19:21:55.559Z,69.44
2023-04-18T19:24:38.466Z,69.22
2023-04-18T19:27:21.249Z,69.20
2023-04-18T19:30:06.193Z,69.86
2023-04-18T19:32:49.037Z,69.73
2023-04-18T19:35:31.854Z,70.19
2023-04-18T19:38:14.612Z,70.03
2023-04-18T19:40:57.511Z,70.73
2023-04-18T19:43:42.425Z,70.31
2023-04-18T19:46:26.843Z,70.55
2023-04-18T19:49:09.706Z,70.59
2023-04-18T19:51:52.814Z,70.59
2023-04-18T19:54:35.752Z,70.46
2023-04-18T19:57:18.521Z,70.64
2023-04-18T20:00:01.416Z,70.47
2023-04-18T20:02:45.613Z,70.98
2023-04-18T20:05:28.542Z,71.00
2023-04-18T20:08:11.406Z,70.81
2023-04-18T20:10:54.166Z,70.55
2023-04-18T20:13:37.637Z,71.17
2023-04-18T20:16:21.060Z,71.35
2023-04-18T20:19:05.623Z,71.79
2023-04-18T20:21:48.387Z,71.60
2023-04-18T20:24:31.729Z,72.58
2023-04-18T20:27:14.502Z,72.43
2023-04-18T20:29:57.553Z,72.83
2023-04-18T20:32:40.389Z,72.65
2023-04-18T20:35:24.593Z,73.05
2023-04-18T20:38:08.858Z,73.88
2023-04-18T20:40:52.875Z,73.14
2023-04-18T20:43:37.217Z,73.52
2023-04-18T20:46:20.141Z,73.91
2023-04-18T20:49:02.953Z,73.83
2023-04-18T20:51:47.434Z,73.91
2023-04-18T20:54:30.469Z,74.55
2023-04-18T20:57:13.303Z,74.06
2023-04-18T20:59:58.525Z,74.06
2023-04-18T21:02:42.041Z,74.20
2023-04-18T21:05:25.035Z,74.13
2023-04-18T21:08:09.147Z,74.32
2023-04-18T21:10:52.351Z,74.42
2023-04-18T21:13:35.529Z,74.52
2023-04-18T21:16:18.398Z,74.30
2023-04-18T21:19:01.190Z,74.26
2023-04-18T21:21:43.957Z,74.31
2023-04-18T21:24:28.061Z,74.34
2023-04-18T21:27:11.467Z,74.75
2023-04-18T21:29:54.262Z,74.61
2023-04-18T21:32:37.141Z,74.14
2023-04-18T21:35:21.929Z,74.05
2023-04-18T21:38:06.334Z,73.61
2023-04-18T21:40:50.447Z,73.55
2023-04-18T21:43:33.193Z,73.44
2023-04-18T21:46:16.319Z,73.34
2023-04-18T21:48:59.448Z,73.29
2023-04-18T21:51:42.253Z,73.30
2023-04-18T21:54:25.001Z,73.21
2023-04-18T21:57:09.149Z,73.12
2023-04-18T21:59:51.864Z,73.22
2023-04-18T22:02:34.706Z,73.07
2023-04-18T22:05:17.851Z,73.08
2023-04-18T22:08:00.755Z,72.98
2023-04-18T22:10:43.540Z,72.88
2023-04-18T22:13:32.971Z,72.83
2023-04-18T22:16:15.967Z,72.68
2023-04-18T22:18:58.762Z,72.76
2023-04-18T22:21:41.702Z,72.62
2023-04-18T22:24:25.878Z,72.56
2023-04-18T22:27:08.672Z,72.54
2023-04-18T22:29:52.797Z,72.54
2023-04-18T22:32:35.853Z,72.75
2023-04-18T22:35:18.828Z,72.56
2023-04-18T22:38:01.708Z,72.69
2023-04-18T22:40:44.473Z,72.96
2023-04-18T22:43:27.240Z,73.16
2023-04-18T22:46:11.471Z,73.41
2023-04-18T22:48:54.237Z,73.19
2023-04-18T22:51:38.252Z,73.19
2023-04-18T22:54:21.105Z,72.99
2023-04-18T22:57:03.910Z,73.19
2023-04-18T22:59:46.663Z,73.00
2023-04-18T23:02:30.914Z,73.05
2023-04-18T23:05:15.512Z,72.97
2023-04-18T23:08:00.208Z,72.93
2023-04-18T23:10:43.361Z,72.92
2023-04-18T23:13:26.139Z,72.89
2023-04-18T23:16:09.400Z,72.75
2023-04-18T23:18:53.677Z,72.76
2023-04-18T23:21:36.516Z,72.65
2023-04-18T23:24:19.269Z,72.57
2023-04-18T23:27:02.412Z,72.48
2023-04-18T23:29:48.731Z,72.63
2023-04-18T23:32:31.637Z,72.73
2023-04-18T23:35:15.750Z,72.80
2023-04-18T23:37:58.529Z,72.88
2023-04-18T23:40:41.277Z,72.95
2023-04-18T23:43:24.068Z,72.91
2023-04-18T23:46:06.928Z,73.09
2023-04-18T23:48:49.721Z,72.92
2023-04-18T23:51:33.845Z,73.08
2023-04-18T23:54:16.801Z,73.03
2023-04-18T23:56:59.716Z,72.86
2023-04-18T23:59:42.613Z,72.96
